Time;durP1;ratioP1;P1;durP2;ratioP2;P2;SDS_P1;SDS_P2;PMS_P1;PMS_P2;Temp;Humidity;BMP_temperature;BMP_pressure;BME280_temperature;BME280_humidity;BME280_pressure;Samples;Min_cycle;Max_cycle;Signal;HPM_P1;HPM_P2
2023/03/30 00:02:21;;;;;;;0.50;0.50;;;;;;;8.08;37.06;95844.34;5132864;27;20519;-56
2023/03/30 00:04:50;;;;;;;0.40;0.30;;;;;;;7.83;37.39;95856.31;5132240;27;20432;-56
2023/03/30 00:07:19;;;;;;;0.33;0.27;;;;;;;7.25;39.45;95817.03;5131874;27;20435;-56
2023/03/30 00:09:47;;;;;;;0.30;0.20;;;;;;;7.68;39.79;95865.59;5132469;28;20432;-56
2023/03/30 00:12:19;;;;;;;0.30;0.20;;;;;;;7.37;40.33;95867.88;5132283;28;20518;-56
2023/03/30 00:14:49;;;;;;;0.47;0.47;;;;;;;7.28;39.89;95820.03;5132496;27;20518;-56
2023/03/30 00:17:18;;;;;;;0.30;0.20;;;;;;;7.12;40.50;95864.75;5132360;27;20510;-56
2023/03/30 00:19:46;;;;;;;1.40;1.30;;;;;;;7.30;40.29;95862.75;5132478;27;20478;-56
2023/03/30 00:22:14;;;;;;;0.47;0.47;;;;;;;7.44;39.39;95810.53;5132293;27;20952;-56
2023/03/30 00:24:43;;;;;;;0.30;0.20;;;;;;;7.80;38.22;95846.22;5136257;27;21061;-56
2023/03/30 00:27:11;;;;;;;0.30;0.20;;;;;;;7.79;39.00;95850.72;5136415;27;20437;-56
2023/03/30 00:29:39;;;;;;;0.33;0.27;;;;;;;7.64;40.28;95847.81;5136283;27;20440;-56
2023/03/30 00:32:09;;;;;;;0.43;0.30;;;;;;;7.80;39.71;95848.88;5136316;27;20445;-56
2023/03/30 00:34:37;;;;;;;0.57;0.43;;;;;;;7.95;40.10;95844.66;5136301;27;20865;-56
2023/03/30 00:37:06;;;;;;;0.60;0.60;;;;;;;7.60;40.98;95851.97;5136483;27;20450;-56
2023/03/30 00:39:34;;;;;;;0.30;0.20;;;;;;;7.81;38.36;95790.59;5135691;27;20479;-56
2023/03/30 00:42:02;;;;;;;0.50;0.50;;;;;;;8.36;38.25;95837.38;5136249;27;20452;-57
2023/03/30 00:45:10;;;;;;;0.30;0.20;;;;;;;8.33;39.62;95838.66;5136333;27;20433;-56
2023/03/30 00:47:43;;;;;;;0.50;0.30;;;;;;;8.19;40.99;95834.72;5135990;27;20519;-56
2023/03/30 00:50:13;;;;;;;0.47;0.37;;;;;;;7.88;42.64;95836.09;5136224;27;20437;-56
2023/03/30 00:52:43;;;;;;;0.30;0.20;;;;;;;7.42;40.82;95850.31;5135653;27;20436;-57
2023/03/30 00:55:12;;;;;;;3.40;0.60;;;;;;;7.65;43.43;95839.66;5135902;27;20441;-56
2023/03/30 00:57:44;;;;;;;0.63;0.43;;;;;;;7.25;41.92;95833.66;5135273;27;20519;-56
2023/03/30 01:00:13;;;;;;;0.87;0.40;;;;;;;6.98;42.50;95820.22;5135975;27;20476;-56
2023/03/30 01:02:47;;;;;;;0.30;0.20;;;;;;;6.94;44.37;95769.03;5135559;27;20443;-56
2023/03/30 01:05:16;;;;;;;0.77;0.43;;;;;;;7.62;42.68;95845.41;5135402;27;20439;-57
2023/03/30 01:07:48;;;;;;;0.40;0.30;;;;;;;6.90;42.58;95822.44;5135846;27;20473;-57
2023/03/30 01:10:18;;;;;;;0.30;0.20;;;;;;;7.55;41.63;95844.78;5133432;27;20445;-56
2023/03/30 01:12:47;;;;;;;0.50;0.50;;;;;;;7.58;41.27;95840.84;5125009;27;20439;-56
2023/03/30 01:15:16;;;;;;;0.53;0.53;;;;;;;6.26;42.99;95789.25;5135145;27;20442;-56
2023/03/30 01:18:12;;;;;;;0.30;0.20;;;;;;;7.14;44.63;95845.03;5134838;27;20462;-56
2023/03/30 01:21:03;;;;;;;0.40;0.40;;;;;;;6.96;43.03;95816.22;5110693;27;20455;-56
2023/03/30 01:24:09;;;;;;;0.53;0.50;;;;;;;6.69;42.90;95813.34;5134501;27;20459;-56
2023/03/30 01:26:54;;;;;;;0.30;0.20;;;;;;;7.62;44.80;95840.13;5134108;27;20441;-56
2023/03/30 01:29:38;;;;;;;0.40;0.30;;;;;;;7.02;42.78;95795.03;5134665;27;20462;-56
2023/03/30 01:33:06;;;;;;;0.30;0.20;;;;;;;7.38;49.87;95819.41;5135375;27;20942;-56
2023/03/30 01:36:03;;;;;;;0.40;0.30;;;;;;;7.50;42.44;95813.03;5135195;27;20445;-56
2023/03/30 01:39:15;;;;;;;0.40;0.30;;;;;;;7.89;42.00;95816.59;5134982;27;20967;-56
2023/03/30 01:41:55;;;;;;;0.40;0.30;;;;;;;7.76;42.46;95822.19;5097978;27;20830;-56
2023/03/30 01:44:32;;;;;;;0.40;0.23;;;;;;;7.43;41.89;95787.84;5134633;27;20444;-56
2023/03/30 01:47:08;;;;;;;0.30;0.20;;;;;;;7.86;40.42;95813.63;5134837;27;20514;-56
2023/03/30 01:49:43;;;;;;;0.30;0.20;;;;;;;7.82;41.56;95818.56;5134187;27;20444;-56
2023/03/30 01:52:18;;;;;;;0.30;0.20;;;;;;;8.04;42.10;95811.53;5135274;27;20773;-56
2023/03/30 01:54:51;;;;;;;0.30;0.20;;;;;;;8.40;40.47;95812.88;5110049;27;20793;-56
2023/03/30 01:57:26;;;;;;;1.03;0.93;;;;;;;7.37;42.09;95815.16;5134955;27;20519;-56
2023/03/30 01:59:58;;;;;;;0.40;0.40;;;;;;;7.80;42.81;95830.41;5135058;27;20477;-56
2023/03/30 02:02:31;;;;;;;0.40;0.40;;;;;;;7.42;42.89;95816.03;5135041;27;20428;-56
2023/03/30 02:05:03;;;;;;;0.40;0.30;;;;;;;7.29;45.79;95821.59;5134342;27;20443;-56
2023/03/30 02:07:35;;;;;;;0.40;0.30;;;;;;;7.80;43.28;95841.75;5122126;27;20988;-56
2023/03/30 02:10:10;;;;;;;0.40;0.30;;;;;;;6.97;43.72;95820.47;5134700;27;20435;-56
2023/03/30 02:12:39;;;;;;;0.60;0.30;;;;;;;7.06;43.10;95815.66;5134532;27;21010;-56
2023/03/30 02:15:10;;;;;;;0.30;0.30;;;;;;;7.82;42.52;95823.06;5133889;27;20442;-56
2023/03/30 02:17:40;;;;;;;0.30;0.20;;;;;;;7.08;43.67;95832.00;5134028;27;20460;-56
2023/03/30 02:20:11;;;;;;;0.30;0.20;;;;;;;7.41;43.76;95830.25;5133674;27;21092;-56
2023/03/30 02:22:39;;;;;;;0.30;0.20;;;;;;;7.81;41.37;95821.44;5131388;27;20436;-56
2023/03/30 02:25:10;;;;;;;0.77;0.77;;;;;;;8.17;45.41;95823.63;5131955;27;20764;-56
2023/03/30 02:27:38;;;;;;;0.83;0.30;;;;;;;7.49;43.90;95819.31;5133875;27;20934;-56
2023/03/30 02:30:08;;;;;;;0.87;0.77;;;;;;;7.65;42.71;95808.00;5134549;27;20464;-56
2023/03/30 02:32:42;;;;;;;0.50;0.30;;;;;;;7.84;41.87;95826.25;5134431;27;20531;-56
2023/03/30 02:35:40;;;;;;;0.50;0.30;;;;;;;7.83;41.32;95824.66;5107715;27;20845;-56
2023/03/30 02:38:44;;;;;;;0.30;0.20;;;;;;;8.05;41.07;95828.97;5105553;27;20473;-56
2023/03/30 02:41:27;;;;;;;0.30;0.20;;;;;;;8.04;40.99;95843.22;5133804;27;20807;-56
2023/03/30 02:44:06;;;;;;;0.30;0.20;;;;;;;7.41;42.73;95838.16;5134329;27;20469;-56
2023/03/30 02:46:57;;;;;;;0.30;0.20;;;;;;;7.13;42.40;95845.28;5133476;27;20434;-56
2023/03/30 02:49:36;;;;;;;8.10;0.40;;;;;;;7.09;43.08;95841.50;5133720;27;20542;-56
2023/03/30 02:52:16;;;;;;;0.70;0.70;;;;;;;7.20;41.01;95840.69;5133164;27;20437;-56
2023/03/30 02:54:50;;;;;;;0.60;0.30;;;;;;;7.31;43.15;95835.34;5107180;27;20448;-57
2023/03/30 02:57:30;;;;;;;0.30;0.20;;;;;;;7.36;43.04;95840.72;5133117;27;20443;-56
2023/03/30 03:00:06;;;;;;;0.40;0.30;;;;;;;6.93;43.95;95841.22;5133517;27;20467;-56
2023/03/30 03:02:38;;;;;;;0.30;0.20;;;;;;;7.13;44.02;95845.28;5132850;27;20450;-56
2023/03/30 03:05:08;;;;;;;0.30;0.20;;;;;;;7.33;42.39;95851.75;5133690;27;20521;-56
2023/03/30 03:07:39;;;;;;;0.50;0.50;;;;;;;7.04;41.29;95843.03;5133145;27;20429;-56
2023/03/30 03:10:08;;;;;;;0.30;0.30;;;;;;;6.96;42.09;95853.94;5132839;27;20985;-56
2023/03/30 03:12:38;;;;;;;0.30;0.20;;;;;;;6.97;41.99;95842.38;5106862;27;20473;-56
2023/03/30 03:15:08;;;;;;;0.40;0.30;;;;;;;7.03;41.89;95848.53;5133123;27;20971;-56
2023/03/30 03:17:37;;;;;;;0.30;0.20;;;;;;;6.80;41.91;95846.75;5132743;27;20980;-56
2023/03/30 03:20:10;;;;;;;0.30;0.20;;;;;;;6.94;41.01;95858.63;5133122;27;20518;-56
2023/03/30 03:22:38;;;;;;;0.83;0.30;;;;;;;6.88;41.86;95850.88;5133190;27;20538;-56
2023/03/30 03:25:07;;;;;;;0.30;0.20;;;;;;;6.54;42.86;95851.72;5132557;27;20429;-56
2023/03/30 03:27:35;;;;;;;0.40;0.30;;;;;;;6.79;42.22;95865.41;5132908;27;20520;-56
2023/03/30 03:30:06;;;;;;;0.30;0.20;;;;;;;6.26;43.41;95840.06;5132487;27;20442;-56
2023/03/30 03:32:35;;;;;;;0.30;0.20;;;;;;;6.41;44.24;95855.38;5133379;27;20428;-56
2023/03/30 03:35:03;;;;;;;0.30;0.20;;;;;;;6.70;42.96;95856.28;5132803;27;20459;-56
2023/03/30 03:37:32;;;;;;;0.40;0.30;;;;;;;6.47;42.69;95841.31;5132548;27;20879;-56
2023/03/30 03:40:00;;;;;;;0.30;0.20;;;;;;;6.74;43.02;95857.41;5132061;27;20476;-56
2023/03/30 03:42:28;;;;;;;0.30;0.20;;;;;;;6.78;43.73;95845.41;5132799;27;20446;-56
2023/03/30 03:44:57;;;;;;;0.30;0.20;;;;;;;6.76;43.96;95855.34;5132511;27;20434;-56
2023/03/30 03:47:26;;;;;;;0.50;0.50;;;;;;;6.25;43.52;95838.44;5133062;27;20434;-56
2023/03/30 03:49:55;;;;;;;0.60;0.33;;;;;;;6.23;43.77;95858.94;5132536;27;20964;-56
2023/03/30 03:52:23;;;;;;;0.40;0.20;;;;;;;6.49;43.91;95856.88;5132453;27;20871;-56
2023/03/30 03:54:51;;;;;;;0.30;0.20;;;;;;;6.30;45.04;95856.97;5132317;27;20523;-56
2023/03/30 03:57:22;;;;;;;0.40;0.40;;;;;;;6.56;44.09;95863.63;5131641;27;20434;-56
2023/03/30 03:59:51;;;;;;;0.40;0.30;;;;;;;6.84;43.70;95865.53;5132552;27;20466;-56
2023/03/30 04:02:20;;;;;;;0.30;0.20;;;;;;;6.92;43.33;95855.44;5132397;27;20496;-56
2023/03/30 04:04:52;;;;;;;0.30;0.20;;;;;;;6.67;44.24;95854.09;5132258;27;20789;-56
2023/03/30 04:07:24;;;;;;;0.30;0.20;;;;;;;6.91;43.49;95863.56;5131948;27;20439;-56
2023/03/30 04:09:52;;;;;;;0.30;0.20;;;;;;;6.80;43.29;95877.56;5132067;28;20443;-56
2023/03/30 04:12:21;;;;;;;0.30;0.20;;;;;;;7.02;42.82;95868.81;5118110;28;20440;-56
2023/03/30 04:14:49;;;;;;;0.63;0.63;;;;;;;6.78;45.33;95872.50;5132230;27;20992;-56
2023/03/30 04:17:18;;;;;;;0.37;0.27;;;;;;;6.96;45.02;95871.56;5131835;28;20457;-56
2023/03/30 04:19:46;;;;;;;0.87;0.30;;;;;;;6.92;45.73;95865.97;5131330;27;20436;-54
2023/03/30 04:22:18;;;;;;;0.30;0.20;;;;;;;7.11;44.89;95869.22;5104948;28;20532;-55
2023/03/30 04:24:47;;;;;;;0.40;0.40;;;;;;;7.24;44.87;95868.97;5131525;28;20500;-55
2023/03/30 04:27:15;;;;;;;0.40;0.37;;;;;;;6.10;44.99;95682.84;5131603;28;20470;-55
2023/03/30 04:29:44;;;;;;;0.30;0.20;;;;;;;7.14;45.15;95867.97;5130860;28;20512;-55
2023/03/30 04:32:19;;;;;;;0.40;0.30;;;;;;;7.26;45.47;95876.66;5130777;28;20444;-55
2023/03/30 04:34:47;;;;;;;0.40;0.30;;;;;;;7.40;45.30;95877.97;5131456;28;20445;-55
2023/03/30 04:37:22;;;;;;;0.30;0.20;;;;;;;7.93;44.27;95877.59;5131519;28;20450;-55
2023/03/30 04:39:52;;;;;;;0.30;0.20;;;;;;;8.18;43.84;95884.09;5130949;27;20466;-55
2023/03/30 04:42:21;;;;;;;0.50;0.50;;;;;;;7.98;43.27;95870.56;5130949;28;20519;-55
2023/03/30 04:44:49;;;;;;;0.37;0.30;;;;;;;7.94;43.63;95884.50;5129929;28;20469;-55
2023/03/30 04:47:18;;;;;;;0.70;0.70;;;;;;;7.75;44.69;95896.28;5131185;28;20447;-55
2023/03/30 04:49:46;;;;;;;0.57;0.50;;;;;;;7.67;44.62;95893.00;5130772;28;20437;-55
2023/03/30 04:52:14;;;;;;;3.40;1.90;;;;;;;7.58;45.48;95902.34;5131270;28;20508;-55
2023/03/30 04:54:45;;;;;;;0.90;0.90;;;;;;;7.31;46.80;95898.63;5104389;28;20521;-55
2023/03/30 04:57:13;;;;;;;1.10;0.93;;;;;;;7.07;46.36;95905.00;5129506;27;20531;-55
2023/03/30 04:59:42;;;;;;;1.10;0.97;;;;;;;7.04;46.08;95902.84;5130098;28;20452;-56
2023/03/30 05:02:12;;;;;;;1.43;1.30;;;;;;;6.98;46.87;95909.03;5129786;28;20512;-55
2023/03/30 05:04:41;;;;;;;2.00;0.93;;;;;;;7.18;47.11;95904.19;5128772;28;20441;-55
2023/03/30 05:07:09;;;;;;;11.33;1.77;;;;;;;6.85;46.93;95909.28;5130826;27;20942;-56
2023/03/30 05:09:38;;;;;;;2.93;1.20;;;;;;;6.62;48.58;95914.56;5133795;27;20441;-55
2023/03/30 05:12:08;;;;;;;1.17;1.17;;;;;;;6.46;49.63;95913.41;5134917;27;20473;-55
2023/03/30 05:14:36;;;;;;;0.50;0.40;;;;;;;6.31;50.23;95918.34;5135495;27;20530;-55
2023/03/30 05:17:04;;;;;;;0.43;0.40;;;;;;;6.80;50.07;95911.81;5135129;27;20455;-55
2023/03/30 05:19:33;;;;;;;0.53;0.53;;;;;;;6.54;50.47;95920.19;5135394;27;20438;-55
2023/03/30 05:22:02;;;;;;;1.37;1.03;;;;;;;6.53;50.47;95921.22;5135247;27;20473;-55
2023/03/30 05:24:30;;;;;;;0.40;0.40;;;;;;;6.99;48.23;95919.34;5134616;27;20498;-55
2023/03/30 05:26:58;;;;;;;0.43;0.43;;;;;;;7.30;47.07;95919.97;5135179;27;20858;-55
2023/03/30 05:29:29;;;;;;;2.20;0.43;;;;;;;7.62;46.54;95921.91;5135136;27;20429;-55
2023/03/30 05:32:02;;;;;;;0.30;0.20;;;;;;;7.75;46.03;95923.47;5109444;27;20463;-55
2023/03/30 05:34:30;;;;;;;0.40;0.30;;;;;;;7.55;44.27;95931.81;5135233;27;20524;-55
2023/03/30 05:36:58;;;;;;;1.03;0.60;;;;;;;6.98;44.55;95936.19;5135446;27;20469;-55
2023/03/30 05:39:27;;;;;;;0.37;0.33;;;;;;;6.86;44.42;95934.59;5134537;27;20436;-56
2023/03/30 05:41:55;;;;;;;0.50;0.40;;;;;;;7.24;45.03;95931.44;5135042;27;20534;-56
2023/03/30 05:44:24;;;;;;;0.30;0.20;;;;;;;7.40;44.62;95923.59;5134439;27;20456;-56
2023/03/30 05:46:53;;;;;;;0.40;0.30;;;;;;;7.29;43.86;95923.63;5134780;27;20508;-56
2023/03/30 05:49:22;;;;;;;1.13;1.13;;;;;;;6.67;45.39;95920.75;5134755;27;20446;-56
2023/03/30 05:51:50;;;;;;;0.77;0.77;;;;;;;6.97;45.86;95936.41;5134605;27;20436;-56
2023/03/30 05:54:19;;;;;;;0.40;0.30;;;;;;;7.27;45.70;95944.97;5134120;27;20443;-56
2023/03/30 05:56:47;;;;;;;0.50;0.30;;;;;;;7.66;44.74;95924.91;5134332;27;20468;-57
2023/03/30 05:59:20;;;;;;;0.40;0.40;;;;;;;8.18;43.84;95923.69;5134384;27;20478;-57
2023/03/30 06:01:48;;;;;;;0.70;0.70;;;;;;;7.87;45.77;95934.75;5134506;27;20932;-55
2023/03/30 06:04:18;;;;;;;0.63;0.60;;;;;;;7.93;46.13;95940.94;5134083;27;20439;-55
2023/03/30 06:06:46;;;;;;;0.50;0.40;;;;;;;7.41;48.35;95954.19;5134337;27;20432;-55
2023/03/30 06:09:15;;;;;;;0.73;0.73;;;;;;;7.91;47.59;95943.03;5134434;27;20811;-56
2023/03/30 06:11:43;;;;;;;0.50;0.40;;;;;;;8.23;46.89;95946.75;5134272;27;20503;-55
2023/03/30 06:14:12;;;;;;;0.40;0.30;;;;;;;8.73;45.77;95931.72;5134050;27;20513;-56
2023/03/30 06:16:40;;;;;;;0.40;0.30;;;;;;;8.86;45.62;95949.09;5133766;27;20446;-55
2023/03/30 06:19:08;;;;;;;0.83;0.83;;;;;;;8.30;46.16;95942.94;5134197;27;20873;-55
2023/03/30 06:21:38;;;;;;;0.40;0.30;;;;;;;8.81;45.00;95949.81;5132493;27;20558;-55
2023/03/30 06:24:07;;;;;;;1.47;0.50;;;;;;;8.66;45.12;95949.59;5133802;27;20549;-55
2023/03/30 06:26:35;;;;;;;0.60;0.57;;;;;;;8.58;44.85;95923.56;5133681;27;20437;-56
2023/03/30 06:29:04;;;;;;;0.60;0.57;;;;;;;8.69;45.28;95941.19;5133959;27;20924;-56
2023/03/30 06:31:32;;;;;;;0.60;0.60;;;;;;;8.90;45.01;95952.84;5133351;27;20433;-50
2023/03/30 06:34:01;;;;;;;0.73;0.73;;;;;;;8.67;44.61;95951.19;5133013;27;20503;-56
2023/03/30 06:36:29;;;;;;;0.70;0.63;;;;;;;8.23;46.55;95896.56;5133798;27;20497;-56
2023/03/30 06:39:16;;;;;;;1.13;0.50;;;;;;;8.67;44.74;95929.25;5133631;27;20441;-56
2023/03/30 06:41:44;;;;;;;0.40;0.30;;;;;;;9.55;44.33;95952.91;5106348;27;20487;-56
2023/03/30 06:44:13;;;;;;;1.13;0.93;;;;;;;9.09;44.25;95903.94;5132972;27;21002;-56
2023/03/30 06:46:42;;;;;;;0.50;0.50;;;;;;;9.71;43.36;95960.00;5133773;27;20439;-55
2023/03/30 06:49:11;;;;;;;0.50;0.40;;;;;;;10.35;39.71;95947.66;5133053;27;20991;-54
2023/03/30 06:51:40;;;;;;;1.13;1.00;;;;;;;10.96;39.02;95945.47;5133514;27;20477;-55
2023/03/30 06:54:09;;;;;;;0.97;0.60;;;;;;;11.01;39.29;95948.94;5133167;27;20462;-55
2023/03/30 06:56:39;;;;;;;1.60;0.67;;;;;;;11.82;38.63;95941.38;5132670;27;20815;-55
2023/03/30 06:59:07;;;;;;;1.27;1.27;;;;;;;12.57;37.09;95944.16;5132497;27;20809;-55
2023/03/30 07:01:36;;;;;;;0.60;0.60;;;;;;;12.87;36.88;95947.88;5133606;27;20467;-55
2023/03/30 07:04:04;;;;;;;1.07;1.07;;;;;;;12.79;36.45;95951.06;5133513;27;20431;-56
2023/03/30 07:06:33;;;;;;;0.97;0.97;;;;;;;13.23;35.98;95944.13;5133353;27;20537;-55
2023/03/30 07:09:04;;;;;;;1.23;1.23;;;;;;;13.17;35.16;95945.19;5133138;27;20513;-56
2023/03/30 07:11:32;;;;;;;0.50;0.40;;;;;;;12.22;36.29;95964.63;5133452;27;20438;-56
2023/03/30 07:14:04;;;;;;;0.50;0.50;;;;;;;12.37;36.45;95957.44;5132654;27;20434;-56
2023/03/30 07:16:32;;;;;;;0.50;0.50;;;;;;;11.53;37.40;95969.41;5132829;27;20435;-56
2023/03/30 07:19:00;;;;;;;4.83;0.67;;;;;;;12.26;37.14;95958.50;5132816;27;20438;-56
2023/03/30 07:21:29;;;;;;;0.40;0.40;;;;;;;12.04;38.14;95972.00;5132241;27;20439;-56
2023/03/30 07:23:59;;;;;;;0.53;0.30;;;;;;;11.31;39.74;95975.66;5132786;27;20890;-56
2023/03/30 07:26:28;;;;;;;0.57;0.57;;;;;;;11.08;39.63;95957.47;5132170;27;20450;-56
2023/03/30 07:28:57;;;;;;;0.40;0.30;;;;;;;10.76;39.44;95983.25;5132108;27;20522;-56
2023/03/30 07:31:26;;;;;;;0.40;0.20;;;;;;;11.24;39.13;95972.44;5132540;27;20435;-59
2023/03/30 07:33:55;;;;;;;0.40;0.30;;;;;;;11.37;39.05;95977.28;5132835;27;20435;-57
2023/03/30 07:36:23;;;;;;;0.50;0.40;;;;;;;11.35;39.06;95934.28;5132640;27;20445;-56
2023/03/30 07:38:51;;;;;;;0.80;0.60;;;;;;;11.66;37.57;95923.81;5132540;27;20442;-55
2023/03/30 07:41:20;;;;;;;0.40;0.20;;;;;;;12.26;37.12;95985.09;5131588;27;20435;-56
2023/03/30 07:43:48;;;;;;;0.77;0.60;;;;;;;12.55;37.33;95982.72;5132224;27;20435;-55
2023/03/30 07:46:16;;;;;;;0.30;0.20;;;;;;;12.75;37.23;95972.88;5132154;27;20496;-55
2023/03/30 07:48:46;;;;;;;0.30;0.20;;;;;;;13.03;36.47;95981.41;5132137;27;20528;-55
2023/03/30 07:51:14;;;;;;;0.50;0.50;;;;;;;12.17;36.59;95977.91;5132520;27;20431;-55
2023/03/30 07:53:43;;;;;;;0.30;0.30;;;;;;;12.14;35.54;95973.91;5132147;27;20435;-55
2023/03/30 07:56:11;;;;;;;0.40;0.33;;;;;;;12.23;36.38;95974.97;5132056;27;20526;-55
2023/03/30 07:58:40;;;;;;;0.30;0.20;;;;;;;12.59;36.90;95960.66;5132265;27;20526;-55
2023/03/30 08:01:08;;;;;;;0.37;0.27;;;;;;;12.72;36.22;95959.34;5131994;27;20431;-55
2023/03/30 08:03:37;;;;;;;0.40;0.20;;;;;;;13.05;35.68;95968.63;5132043;27;20478;-55
2023/03/30 08:06:09;;;;;;;0.87;0.30;;;;;;;13.38;35.87;95966.16;5105624;27;20982;-56
2023/03/30 08:08:39;;;;;;;0.87;0.87;;;;;;;13.69;34.07;95964.19;5132193;27;20915;-56
2023/03/30 08:11:09;;;;;;;0.50;0.50;;;;;;;13.84;34.04;95969.47;5132303;27;20870;-56
2023/03/30 08:13:38;;;;;;;0.40;0.30;;;;;;;13.81;34.78;95966.56;5132248;28;20565;-56
2023/03/30 08:16:07;;;;;;;3.13;0.60;;;;;;;12.69;35.13;95944.72;5132273;28;21039;-57
2023/03/30 08:18:37;;;;;;;1.10;0.63;;;;;;;12.58;35.83;95969.69;5132524;28;20462;-57
2023/03/30 08:21:05;;;;;;;0.93;0.60;;;;;;;12.93;35.87;95965.44;5131376;28;20466;-57
2023/03/30 08:23:35;;;;;;;0.40;0.30;;;;;;;13.31;35.05;95956.88;5131671;28;20518;-56
2023/03/30 08:26:04;;;;;;;0.70;0.40;;;;;;;13.93;34.17;95964.38;5131846;27;20986;-57
2023/03/30 08:28:32;;;;;;;0.40;0.40;;;;;;;15.36;33.48;95957.69;5131973;28;20443;-57
2023/03/30 08:31:05;;;;;;;0.50;0.50;;;;;;;15.96;33.16;95941.00;5131973;27;20812;-57
2023/03/30 08:33:35;;;;;;;0.40;0.30;;;;;;;15.93;33.38;95877.41;5132158;27;20514;-56
2023/03/30 08:36:04;;;;;;;0.60;0.50;;;;;;;16.67;33.10;95948.03;5132067;27;20797;-57
2023/03/30 08:38:32;;;;;;;0.50;0.33;;;;;;;15.97;33.69;95899.78;5131175;27;20487;-57
2023/03/30 08:41:02;;;;;;;0.40;0.30;;;;;;;16.64;32.43;95943.25;5132206;28;20435;-57
2023/03/30 08:43:52;;;;;;;1.00;0.50;;;;;;;16.71;33.09;95949.00;5132828;27;20497;-57
2023/03/30 08:46:21;;;;;;;0.40;0.30;;;;;;;17.15;31.93;95939.41;5135779;27;20435;-58
2023/03/30 08:48:52;;;;;;;0.50;0.43;;;;;;;16.75;31.60;95928.59;5135937;27;20958;-59
2023/03/30 08:51:24;;;;;;;0.50;0.43;;;;;;;17.49;31.52;95924.84;5135351;27;20442;-60
2023/03/30 08:53:56;;;;;;;0.40;0.30;;;;;;;17.18;31.33;95921.94;5135867;27;20525;-61
2023/03/30 08:56:29;;;;;;;0.60;0.60;;;;;;;15.78;33.13;95923.03;5135071;27;20509;-62
2023/03/30 08:59:12;;;;;;;0.40;0.30;;;;;;;15.78;33.49;95920.38;5134856;27;20537;-61
2023/03/30 09:01:47;;;;;;;0.40;0.30;;;;;;;15.34;33.97;95919.78;5135170;27;20955;-62
2023/03/30 09:04:25;;;;;;;0.37;0.27;;;;;;;16.60;33.61;95907.44;5135486;27;20513;-61
2023/03/30 09:06:57;;;;;;;1.03;0.53;;;;;;;16.58;33.21;95905.06;5135129;27;20473;-61
2023/03/30 09:09:30;;;;;;;0.40;0.40;;;;;;;17.39;33.62;95904.41;5135382;27;20934;-63
2023/03/30 09:12:05;;;;;;;3.87;0.93;;;;;;;17.00;33.07;95906.75;5135188;27;20474;-61
2023/03/30 09:14:40;;;;;;;0.40;0.20;;;;;;;18.33;32.26;95899.22;5134934;27;20449;-62
2023/03/30 09:17:14;;;;;;;0.50;0.30;;;;;;;19.04;31.55;95898.31;5134834;27;20497;-62
2023/03/30 09:19:51;;;;;;;0.40;0.30;;;;;;;17.87;30.87;95861.09;5135445;27;20536;-62
2023/03/30 09:22:20;;;;;;;0.40;0.40;;;;;;;18.05;31.41;95890.47;5134804;27;20513;-62
2023/03/30 09:24:50;;;;;;;0.40;0.30;;;;;;;18.19;32.17;95896.59;5134536;27;20470;-62
2023/03/30 09:27:28;;;;;;;0.50;0.30;;;;;;;18.31;31.08;95886.13;5134777;27;20500;-62
2023/03/30 09:30:09;;;;;;;0.40;0.27;;;;;;;19.71;31.10;95882.03;5134474;27;20487;-60
2023/03/30 09:32:41;;;;;;;0.40;0.30;;;;;;;19.91;30.62;95879.50;5134522;27;20442;-60
2023/03/30 09:35:15;;;;;;;0.70;0.70;;;;;;;18.52;31.79;95875.72;5134530;27;20468;-61
2023/03/30 09:37:43;;;;;;;1.10;0.90;;;;;;;19.19;30.97;95876.44;5134598;27;20435;-60
2023/03/30 09:40:25;;;;;;;0.53;0.53;;;;;;;18.77;30.96;95883.13;5134977;27;20427;-62
2023/03/30 09:43:07;;;;;;;0.40;0.30;;;;;;;18.67;30.71;95879.94;5134446;27;20471;-62
2023/03/30 09:45:36;;;;;;;0.50;0.40;;;;;;;18.88;30.43;95878.31;5134873;27;20441;-61
2023/03/30 09:48:07;;;;;;;0.40;0.30;;;;;;;19.56;30.18;95862.50;5135253;27;20518;-61
2023/03/30 09:50:39;;;;;;;0.53;0.37;;;;;;;20.05;29.62;95860.53;5135221;27;20500;-60
2023/03/30 09:53:19;;;;;;;1.27;1.17;;;;;;;19.37;29.92;95859.28;5108714;27;20439;-61
2023/03/30 09:55:58;;;;;;;0.40;0.20;;;;;;;18.91;30.66;95851.63;5131472;27;20530;-61
2023/03/30 09:58:32;;;;;;;0.80;0.40;;;;;;;19.89;30.03;95844.06;5125587;27;20444;-60
2023/03/30 10:01:04;;;;;;;0.50;0.33;;;;;;;20.50;29.31;95840.28;5134190;27;20442;-61
2023/03/30 10:03:32;;;;;;;0.40;0.30;;;;;;;20.10;29.21;95828.88;5134421;27;20471;-61
2023/03/30 10:06:04;;;;;;;0.50;0.50;;;;;;;20.02;29.58;95821.59;5107470;27;20986;-62
2023/03/30 10:08:33;;;;;;;0.40;0.20;;;;;;;19.41;30.70;95819.13;5134599;27;20449;-60
2023/03/30 10:11:04;;;;;;;0.43;0.37;;;;;;;20.06;29.37;95752.56;5133989;27;20526;-61
2023/03/30 10:13:39;;;;;;;0.77;0.77;;;;;;;19.89;30.21;95803.69;5134034;27;20467;-57
2023/03/30 10:16:12;;;;;;;0.70;0.60;;;;;;;19.44;30.42;95788.94;5134455;27;20558;-57
2023/03/30 10:18:43;;;;;;;0.50;0.40;;;;;;;19.24;30.53;95757.25;5119988;27;20431;-56
2023/03/30 10:21:21;;;;;;;0.40;0.20;;;;;;;21.82;29.84;95801.38;5133760;27;20473;-56
2023/03/30 10:24:01;;;;;;;0.70;0.40;;;;;;;22.51;28.47;95794.34;5133586;27;20543;-54
2023/03/30 10:26:31;;;;;;;0.77;0.50;;;;;;;22.53;29.02;95756.97;5133041;27;20458;-55
2023/03/30 10:29:04;;;;;;;0.60;0.60;;;;;;;21.92;27.13;95744.34;5133874;27;20435;-55
2023/03/30 10:31:36;;;;;;;0.40;0.30;;;;;;;23.20;26.46;95770.00;5133789;27;20441;-55
2023/03/30 10:34:07;;;;;;;0.40;0.30;;;;;;;23.61;26.32;95762.78;5133893;27;20951;-54
2023/03/30 10:36:39;;;;;;;0.53;0.47;;;;;;;22.49;26.81;95763.38;5134095;27;20430;-55
2023/03/30 10:39:14;;;;;;;1.77;0.60;;;;;;;22.22;27.73;95756.63;5133267;27;20447;-55
2023/03/30 10:41:43;;;;;;;0.50;0.40;;;;;;;21.73;27.14;95749.41;5133381;27;20446;-55
2023/03/30 10:44:22;;;;;;;0.50;0.47;;;;;;;21.90;26.71;95770.88;5133266;27;20459;-55
2023/03/30 10:46:53;;;;;;;0.50;0.40;;;;;;;23.54;26.42;95695.72;5133169;27;20449;-55
2023/03/30 10:49:36;;;;;;;0.60;0.50;;;;;;;22.81;28.02;95750.94;5133055;27;20870;-55
2023/03/30 10:52:12;;;;;;;0.40;0.30;;;;;;;24.27;26.05;95734.19;5133622;27;20829;-55
2023/03/30 10:54:48;;;;;;;0.50;0.50;;;;;;;24.26;26.50;95693.91;5133602;27;20495;-55
2023/03/30 10:57:19;;;;;;;0.40;0.30;;;;;;;23.70;24.95;95693.91;5132324;27;20926;-55
2023/03/30 11:00:08;;;;;;;0.40;0.30;;;;;;;24.10;25.28;95733.72;5133728;27;20900;-56
2023/03/30 11:02:54;;;;;;;0.60;0.60;;;;;;;24.62;24.77;95724.28;5133140;27;20442;-56
2023/03/30 11:05:29;;;;;;;0.40;0.30;;;;;;;25.81;24.40;95720.16;5133077;27;20482;-56
2023/03/30 11:08:02;;;;;;;0.57;0.40;;;;;;;23.91;25.47;95653.88;5132328;27;20454;-56
2023/03/30 11:10:32;;;;;;;0.30;0.20;;;;;;;23.67;26.60;95718.94;5132552;27;20539;-55
2023/03/30 11:13:04;;;;;;;3.70;0.30;;;;;;;23.06;26.88;95720.09;5132728;27;20915;-56
2023/03/30 11:15:39;;;;;;;0.40;0.30;;;;;;;23.53;25.65;95710.38;5132456;27;20437;-56
2023/03/30 11:18:17;;;;;;;0.30;0.20;;;;;;;24.55;25.24;95585.91;5132793;27;20435;-56
2023/03/30 11:20:51;;;;;;;0.40;0.30;;;;;;;26.72;23.02;95676.06;5132832;27;20966;-56
2023/03/30 11:23:26;;;;;;;0.50;0.50;;;;;;;27.16;22.94;95693.53;5131987;27;20465;-56
2023/03/30 11:26:01;;;;;;;0.33;0.30;;;;;;;26.79;22.95;95698.00;5133169;27;20817;-56
2023/03/30 11:28:49;;;;;;;0.67;0.40;;;;;;;26.73;23.52;95691.25;5132833;27;20438;-56
2023/03/30 11:31:42;;;;;;;0.30;0.20;;;;;;;26.91;23.11;95686.94;5132206;27;20439;-56
2023/03/30 11:34:19;;;;;;;0.40;0.30;;;;;;;25.82;24.51;95617.75;5130055;27;20446;-57
2023/03/30 11:36:55;;;;;;;0.30;0.20;;;;;;;27.49;22.63;95639.22;5132490;27;20529;-56
2023/03/30 11:39:29;;;;;;;0.70;0.70;;;;;;;25.65;23.88;95631.78;5132495;27;20481;-57
2023/03/30 11:42:08;;;;;;;0.40;0.30;;;;;;;26.62;24.11;95657.66;5132785;27;20969;-56
2023/03/30 11:44:36;;;;;;;0.40;0.40;;;;;;;25.59;23.99;95630.47;5132157;27;20556;-56
2023/03/30 11:47:23;;;;;;;0.40;0.30;;;;;;;26.14;24.64;95661.84;5132509;27;20435;-56
2023/03/30 11:50:03;;;;;;;0.80;0.80;;;;;;;24.37;24.99;95640.78;5132244;27;20441;-56
2023/03/30 11:52:37;;;;;;;0.40;0.30;;;;;;;24.65;25.49;95657.75;5132566;27;20462;-56
2023/03/30 11:55:28;;;;;;;0.40;0.30;;;;;;;25.73;24.10;95645.13;5131875;27;20446;-56
2023/03/30 11:58:08;;;;;;;0.60;0.60;;;;;;;22.45;25.98;95652.47;5131848;27;20443;-57
2023/03/30 12:00:48;;;;;;;0.40;0.40;;;;;;;21.79;27.43;95605.06;5131594;27;20863;-56
2023/03/30 12:03:32;;;;;;;0.50;0.40;;;;;;;22.38;26.95;95641.44;5132231;27;20795;-56
2023/03/30 12:06:16;;;;;;;0.40;0.30;;;;;;;22.68;26.24;95640.16;5106344;28;20505;-56